createdAt,value
2017-12-28T00:00:14.140Z,981
2017-12-28T00:01:14.841Z,981
2017-12-28T00:02:15.558Z,981
2017-12-28T00:03:16.263Z,981
2017-12-28T00:04:16.965Z,981
2017-12-28T00:05:17.670Z,981
2017-12-28T00:06:18.373Z,981
2017-12-28T00:07:19.077Z,981
2017-12-28T00:08:19.793Z,981
2017-12-28T00:09:20.494Z,981
2017-12-28T00:10:21.198Z,981
2017-12-28T00:11:21.901Z,981
2017-12-28T00:12:22.603Z,981
2017-12-28T00:13:23.305Z,981
2017-12-28T00:14:24.020Z,982
2017-12-28T00:15:24.721Z,982
2017-12-28T00:16:25.423Z,982
2017-12-28T00:17:26.124Z,982
2017-12-28T00:18:26.839Z,981
2017-12-28T00:19:27.541Z,982
2017-12-28T00:20:28.244Z,982
2017-12-28T00:21:28.946Z,982
2017-12-28T00:22:29.648Z,982
2017-12-28T00:23:30.351Z,982
2017-12-28T00:24:31.055Z,982
2017-12-28T00:25:31.771Z,982
2017-12-28T00:26:32.475Z,982
2017-12-28T00:27:33.177Z,982
2017-12-28T00:28:33.883Z,982
2017-12-28T00:29:34.582Z,982
2017-12-28T00:30:35.284Z,982
2017-12-28T00:31:35.985Z,982
2017-12-28T00:32:36.688Z,982
2017-12-28T00:33:37.390Z,982
2017-12-28T00:34:38.093Z,982
2017-12-28T00:35:38.797Z,982
2017-12-28T00:36:39.501Z,982
2017-12-28T00:37:40.204Z,982
2017-12-28T00:38:40.909Z,982
2017-12-28T00:39:41.612Z,982
2017-12-28T00:40:42.319Z,982
2017-12-28T00:41:43.021Z,982
2017-12-28T00:42:43.724Z,982
2017-12-28T00:43:44.427Z,982
2017-12-28T00:44:45.132Z,982
2017-12-28T00:45:45.836Z,982
2017-12-28T00:46:46.541Z,982
2017-12-28T00:47:47.246Z,982
2017-12-28T00:48:47.950Z,982
2017-12-28T00:49:48.666Z,982
2017-12-28T00:50:49.367Z,982
2017-12-28T00:51:50.082Z,982
2017-12-28T00:52:50.798Z,982
2017-12-28T00:53:51.501Z,982
2017-12-28T00:54:52.202Z,982
2017-12-28T00:55:52.921Z,982
2017-12-28T00:56:53.624Z,982
2017-12-28T00:57:54.327Z,982
2017-12-28T00:58:55.031Z,982
2017-12-28T00:59:55.747Z,982
2017-12-28T01:00:56.449Z,982
2017-12-28T01:01:57.152Z,982
2017-12-28T01:02:57.854Z,982
2017-12-28T01:03:58.559Z,982
2017-12-28T01:04:59.275Z,982
2017-12-28T01:05:59.976Z,982
2017-12-28T01:07:00.679Z,982
2017-12-28T01:08:01.382Z,983
2017-12-28T01:09:02.084Z,982
2017-12-28T01:10:02.800Z,983
2017-12-28T01:11:03.505Z,983
2017-12-28T01:12:04.207Z,983
2017-12-28T01:13:04.922Z,983
2017-12-28T01:14:05.626Z,983
2017-12-28T01:15:06.327Z,983
2017-12-28T01:16:07.032Z,983
2017-12-28T01:17:07.733Z,983
2017-12-28T01:18:08.449Z,983
2017-12-28T01:19:09.152Z,983
2017-12-28T01:20:09.854Z,983
2017-12-28T01:21:10.555Z,983
2017-12-28T01:22:11.258Z,983
2017-12-28T01:23:11.962Z,983
2017-12-28T01:24:12.666Z,983
2017-12-28T01:25:13.371Z,983
2017-12-28T01:26:14.076Z,983
2017-12-28T01:27:14.779Z,983
2017-12-28T01:28:15.481Z,983
2017-12-28T01:29:16.185Z,983
2017-12-28T01:30:16.887Z,983
2017-12-28T01:31:17.590Z,983
2017-12-28T01:32:18.293Z,983
2017-12-28T01:33:19.009Z,983
2017-12-28T01:34:19.711Z,983
2017-12-28T01:35:20.414Z,983
2017-12-28T01:36:21.119Z,983
2017-12-28T01:37:21.819Z,983
2017-12-28T01:38:22.541Z,983
2017-12-28T01:39:23.223Z,983
2017-12-28T01:40:23.927Z,983
2017-12-28T01:41:24.633Z,983
2017-12-28T01:42:25.335Z,983
2017-12-28T01:43:26.049Z,983
2017-12-28T01:44:26.752Z,983
2017-12-28T01:45:27.454Z,983
2017-12-28T01:46:28.156Z,983
2017-12-28T01:47:28.861Z,983
2017-12-28T01:48:29.574Z,983
2017-12-28T01:49:30.291Z,983
2017-12-28T01:50:30.994Z,983
2017-12-28T01:51:31.705Z,983
2017-12-28T01:52:32.403Z,983
2017-12-28T01:53:33.106Z,983
2017-12-28T01:54:33.810Z,983
2017-12-28T01:55:34.528Z,983
2017-12-28T01:56:35.229Z,983
2017-12-28T01:57:35.944Z,983
2017-12-28T01:58:36.648Z,983
2017-12-28T01:59:37.351Z,983
2017-12-28T02:00:38.066Z,983
2017-12-28T02:01:38.771Z,983
2017-12-28T02:02:39.470Z,983
2017-12-28T02:03:40.173Z,983
2017-12-28T02:04:40.875Z,983
2017-12-28T02:05:41.577Z,983
2017-12-28T02:06:42.279Z,983
2017-12-28T02:07:42.982Z,983
2017-12-28T02:08:43.685Z,983
2017-12-28T02:09:44.387Z,983
2017-12-28T02:10:45.087Z,983
2017-12-28T02:11:45.787Z,983
2017-12-28T02:12:46.488Z,983
2017-12-28T02:13:47.189Z,983
2017-12-28T02:14:47.891Z,983
2017-12-28T02:15:48.598Z,983
2017-12-28T02:16:49.296Z,983
2017-12-28T02:17:50.011Z,983
2017-12-28T02:18:50.712Z,983
2017-12-28T02:19:51.425Z,984
2017-12-28T02:20:52.127Z,984
2017-12-28T02:21:52.828Z,984
2017-12-28T02:22:53.531Z,984
2017-12-28T02:23:54.233Z,984
2017-12-28T02:24:54.948Z,984
2017-12-28T02:25:55.651Z,984
2017-12-28T02:26:56.363Z,984
2017-12-28T02:27:57.066Z,984
2017-12-28T02:28:57.778Z,984
2017-12-28T02:29:58.480Z,984
2017-12-28T02:30:59.181Z,984
2017-12-28T02:31:59.883Z,984
2017-12-28T02:33:00.584Z,984
2017-12-28T02:34:01.285Z,984
2017-12-28T02:35:01.987Z,984
2017-12-28T02:36:02.767Z,984
2017-12-28T02:37:03.421Z,984
2017-12-28T02:38:04.131Z,984
2017-12-28T02:39:04.832Z,984
2017-12-28T02:40:05.547Z,984
2017-12-28T02:41:06.247Z,984
2017-12-28T02:42:06.956Z,984
2017-12-28T02:43:07.660Z,984
2017-12-28T02:44:08.360Z,984
2017-12-28T02:45:09.073Z,984
2017-12-28T02:46:09.776Z,984
2017-12-28T02:47:10.476Z,984
2017-12-28T02:48:11.187Z,984
2017-12-28T02:49:11.899Z,984
2017-12-28T02:50:12.615Z,984
2017-12-28T02:51:13.318Z,984
2017-12-28T02:52:14.037Z,984
2017-12-28T02:53:14.747Z,984
2017-12-28T02:54:15.448Z,984
2017-12-28T02:55:16.153Z,984
2017-12-28T02:56:16.850Z,984
2017-12-28T02:57:17.550Z,984
2017-12-28T02:58:18.253Z,984
2017-12-28T02:59:18.954Z,984
2017-12-28T03:00:19.656Z,984
2017-12-28T03:01:20.358Z,984
2017-12-28T03:02:21.061Z,984
2017-12-28T03:03:21.776Z,984
2017-12-28T03:04:22.477Z,984
2017-12-28T03:05:23.178Z,984
2017-12-28T03:06:23.881Z,984
2017-12-28T03:07:24.584Z,984
2017-12-28T03:08:25.287Z,984
2017-12-28T03:09:26.002Z,984
2017-12-28T03:10:26.717Z,984
2017-12-28T03:11:27.432Z,984
2017-12-28T03:12:28.134Z,984
2017-12-28T03:13:28.836Z,984
2017-12-28T03:14:29.537Z,984
2017-12-28T03:15:30.239Z,984
2017-12-28T03:16:30.939Z,984
2017-12-28T03:17:31.640Z,984
2017-12-28T03:18:32.353Z,984
2017-12-28T03:19:33.053Z,984
2017-12-28T03:20:33.753Z,984
2017-12-28T03:21:34.457Z,984
2017-12-28T03:22:35.170Z,984
2017-12-28T03:23:35.872Z,984
2017-12-28T03:24:36.586Z,984
2017-12-28T03:25:37.288Z,984
2017-12-28T03:26:38.002Z,984
2017-12-28T03:27:38.703Z,984
2017-12-28T03:28:39.405Z,984
2017-12-28T03:29:40.108Z,984
2017-12-28T03:30:40.822Z,984
2017-12-28T03:31:41.523Z,984
2017-12-28T03:32:42.222Z,985
2017-12-28T03:33:42.935Z,985
2017-12-28T03:34:43.635Z,985
2017-12-28T03:35:44.336Z,985
2017-12-28T03:36:45.036Z,985
2017-12-28T03:37:45.749Z,985
2017-12-28T03:38:46.451Z,985
2017-12-28T03:39:47.152Z,985
2017-12-28T03:40:47.865Z,985
2017-12-28T03:41:48.565Z,985
2017-12-28T03:42:49.265Z,985
2017-12-28T03:43:49.965Z,985
2017-12-28T03:44:50.665Z,985
2017-12-28T03:45:51.379Z,985
2017-12-28T03:46:52.078Z,985
2017-12-28T03:47:52.779Z,985
2017-12-28T03:48:53.482Z,985
2017-12-28T03:49:54.194Z,985
2017-12-28T03:50:54.894Z,985
2017-12-28T03:51:55.594Z,985
2017-12-28T03:52:56.297Z,985
2017-12-28T03:53:56.999Z,985
2017-12-28T03:54:57.700Z,985
2017-12-28T03:55:58.401Z,985
2017-12-28T03:56:59.115Z,985
2017-12-28T03:57:59.815Z,985
2017-12-28T03:59:00.515Z,985
2017-12-28T04:00:01.225Z,985
2017-12-28T04:01:01.927Z,985
2017-12-28T04:02:02.641Z,985
2017-12-28T04:03:03.352Z,985
2017-12-28T04:04:04.066Z,985
2017-12-28T04:05:04.769Z,985
2017-12-28T04:06:05.483Z,985
2017-12-28T04:07:06.186Z,985
2017-12-28T04:08:06.886Z,985
2017-12-28T04:09:07.598Z,985
2017-12-28T04:10:08.312Z,985
2017-12-28T04:11:09.012Z,985
2017-12-28T04:12:09.714Z,985
2017-12-28T04:13:10.429Z,985
2017-12-28T04:14:11.144Z,985
2017-12-28T04:15:11.858Z,985
2017-12-28T04:16:12.557Z,985
2017-12-28T04:17:13.272Z,985
2017-12-28T04:18:13.982Z,985
2017-12-28T04:19:14.684Z,985
2017-12-28T04:20:15.386Z,985
2017-12-28T04:21:16.087Z,985
2017-12-28T04:22:16.790Z,985
2017-12-28T04:23:17.489Z,985
2017-12-28T04:24:18.189Z,985
2017-12-28T04:25:18.890Z,985
2017-12-28T04:26:19.592Z,985
2017-12-28T04:27:20.306Z,985
2017-12-28T04:28:21.018Z,985
2017-12-28T04:29:21.719Z,985
2017-12-28T04:30:22.420Z,985
2017-12-28T04:31:23.122Z,985
2017-12-28T04:32:23.836Z,985
2017-12-28T04:33:24.536Z,985
2017-12-28T04:34:25.240Z,985
2017-12-28T04:35:25.940Z,985
2017-12-28T04:36:26.648Z,985
2017-12-28T04:37:27.342Z,985
2017-12-28T04:38:28.043Z,985
2017-12-28T04:39:28.754Z,985
2017-12-28T04:40:29.467Z,985
2017-12-28T04:41:30.170Z,985
2017-12-28T04:42:30.870Z,985
2017-12-28T04:43:31.585Z,985
2017-12-28T04:44:32.288Z,985
2017-12-28T04:45:32.992Z,985
2017-12-28T04:46:33.695Z,985
2017-12-28T04:47:34.397Z,985
2017-12-28T04:48:35.115Z,985
2017-12-28T04:49:35.816Z,985
2017-12-28T04:50:36.517Z,985
2017-12-28T04:51:37.229Z,986
2017-12-28T04:52:37.941Z,986
2017-12-28T04:53:38.654Z,986
2017-12-28T04:54:39.357Z,986
2017-12-28T04:55:40.076Z,986
2017-12-28T04:56:40.788Z,986
2017-12-28T04:57:41.487Z,986
2017-12-28T04:58:42.189Z,986
2017-12-28T04:59:42.891Z,986
2017-12-28T05:00:43.604Z,986
2017-12-28T05:01:44.304Z,986
2017-12-28T05:02:45.009Z,986
2017-12-28T05:03:45.717Z,986
2017-12-28T05:04:46.420Z,986
2017-12-28T05:05:47.120Z,986
2017-12-28T05:06:47.824Z,986
2017-12-28T05:07:48.523Z,986
2017-12-28T05:08:49.224Z,986
2017-12-28T05:09:49.924Z,986
2017-12-28T05:10:50.626Z,986
2017-12-28T05:11:51.329Z,986
2017-12-28T05:12:52.030Z,986
2017-12-28T05:13:52.732Z,986
2017-12-28T05:14:53.450Z,986
2017-12-28T05:15:54.148Z,986
2017-12-28T05:16:54.851Z,986
2017-12-28T05:17:55.554Z,986
2017-12-28T05:18:56.256Z,986
2017-12-28T05:19:56.958Z,986
2017-12-28T05:20:57.660Z,986
2017-12-28T05:21:58.365Z,986
2017-12-28T05:22:59.066Z,986
2017-12-28T05:23:59.769Z,986
2017-12-28T05:25:00.471Z,986
2017-12-28T05:26:01.174Z,986
2017-12-28T05:27:01.876Z,986
2017-12-28T05:28:02.579Z,986
2017-12-28T05:29:03.285Z,986
2017-12-28T05:30:03.998Z,986
2017-12-28T05:31:04.711Z,986
2017-12-28T05:32:05.413Z,986
2017-12-28T05:33:06.114Z,986
2017-12-28T05:34:06.816Z,986
2017-12-28T05:35:07.520Z,986
2017-12-28T05:36:08.218Z,986
2017-12-28T05:37:08.920Z,986
2017-12-28T05:38:09.623Z,986
2017-12-28T05:39:10.336Z,986
2017-12-28T05:40:11.050Z,986
2017-12-28T05:41:11.751Z,986
2017-12-28T05:42:12.454Z,986
2017-12-28T05:43:13.155Z,986
2017-12-28T05:44:13.856Z,986
2017-12-28T05:45:14.558Z,986
2017-12-28T05:46:15.257Z,986
2017-12-28T05:47:15.964Z,986
2017-12-28T05:48:16.671Z,986
2017-12-28T05:49:17.371Z,986
2017-12-28T05:50:18.072Z,986
2017-12-28T05:51:18.784Z,986
2017-12-28T05:52:19.488Z,986
2017-12-28T05:53:20.184Z,987
2017-12-28T05:54:20.885Z,987
2017-12-28T05:55:21.586Z,987
2017-12-28T05:56:22.288Z,986
2017-12-28T05:57:22.990Z,986
2017-12-28T05:58:23.691Z,987
2017-12-28T05:59:24.393Z,987
2017-12-28T06:00:25.096Z,987
2017-12-28T06:01:25.799Z,987
2017-12-28T06:02:26.502Z,987
2017-12-28T06:03:27.205Z,987
2017-12-28T06:04:27.909Z,987
2017-12-28T06:05:28.611Z,987
2017-12-28T06:06:29.316Z,987
2017-12-28T06:07:30.020Z,987
2017-12-28T06:08:30.722Z,987
2017-12-28T06:09:31.425Z,987
2017-12-28T06:10:32.127Z,987
2017-12-28T06:11:32.842Z,987
2017-12-28T06:12:33.543Z,987
2017-12-28T06:13:34.244Z,987
2017-12-28T06:14:34.946Z,987
2017-12-28T06:15:35.649Z,987
2017-12-28T06:16:36.352Z,987
2017-12-28T06:17:37.055Z,987
2017-12-28T06:18:37.759Z,987
2017-12-28T06:19:38.474Z,987
2017-12-28T06:20:39.173Z,987
2017-12-28T06:21:39.873Z,987
2017-12-28T06:22:40.574Z,987
2017-12-28T06:23:41.276Z,987
2017-12-28T06:24:41.980Z,987
2017-12-28T06:25:42.684Z,987
2017-12-28T06:26:43.387Z,987
2017-12-28T06:27:44.090Z,987
2017-12-28T06:28:44.804Z,987
2017-12-28T06:29:45.506Z,987
2017-12-28T06:30:46.217Z,987
2017-12-28T06:31:46.925Z,987
2017-12-28T06:32:47.617Z,987
2017-12-28T06:33:48.320Z,987
2017-12-28T06:34:49.032Z,987
2017-12-28T06:35:49.733Z,987
2017-12-28T06:36:50.433Z,987
2017-12-28T06:37:51.134Z,987
2017-12-28T06:38:51.836Z,987
2017-12-28T06:39:52.537Z,987
2017-12-28T06:40:53.250Z,987
2017-12-28T06:41:53.951Z,987
2017-12-28T06:42:54.649Z,987
2017-12-28T06:43:55.351Z,987
2017-12-28T06:44:56.053Z,987
2017-12-28T06:45:56.755Z,987
2017-12-28T06:46:57.457Z,987
2017-12-28T06:47:58.171Z,987
2017-12-28T06:48:58.884Z,987
2017-12-28T06:49:59.583Z,987
2017-12-28T06:51:00.286Z,987
2017-12-28T06:52:00.987Z,987
2017-12-28T06:53:01.688Z,987
2017-12-28T06:54:02.390Z,987
2017-12-28T06:55:03.091Z,987
2017-12-28T06:56:03.792Z,987
2017-12-28T06:57:04.493Z,987
2017-12-28T06:58:05.205Z,987
2017-12-28T06:59:05.906Z,987
2017-12-28T07:00:06.604Z,988
2017-12-28T07:01:07.325Z,988
2017-12-28T07:02:08.030Z,988
2017-12-28T07:03:08.747Z,988
2017-12-28T07:04:09.459Z,988
2017-12-28T07:05:10.161Z,988
2017-12-28T07:06:10.862Z,988
2017-12-28T07:07:11.604Z,988
2017-12-28T07:08:12.267Z,988
2017-12-28T07:09:12.971Z,988
2017-12-28T07:10:13.673Z,988
2017-12-28T07:11:14.387Z,988
2017-12-28T07:12:15.089Z,988
2017-12-28T07:13:15.789Z,988
2017-12-28T07:14:16.492Z,988
2017-12-28T07:15:17.195Z,988
2017-12-28T07:16:17.909Z,988
2017-12-28T07:17:18.611Z,988
2017-12-28T07:18:19.314Z,988
2017-12-28T07:19:20.027Z,988
2017-12-28T07:20:20.730Z,988
2017-12-28T07:21:21.432Z,988
2017-12-28T07:22:22.148Z,988
2017-12-28T07:23:22.851Z,988
2017-12-28T07:24:23.555Z,988
2017-12-28T07:25:24.258Z,988
2017-12-28T07:26:24.975Z,988
2017-12-28T07:27:25.679Z,988
2017-12-28T07:28:26.382Z,988
2017-12-28T07:29:27.084Z,988
2017-12-28T07:30:27.788Z,988
2017-12-28T07:31:28.491Z,988
2017-12-28T07:32:29.195Z,988
2017-12-28T07:33:29.901Z,988
2017-12-28T07:34:30.617Z,988
2017-12-28T07:35:31.318Z,988
2017-12-28T07:36:32.020Z,988
2017-12-28T07:37:32.723Z,988
2017-12-28T07:38:33.424Z,988
2017-12-28T07:39:34.127Z,988
2017-12-28T07:40:34.829Z,988
2017-12-28T07:41:35.532Z,988
2017-12-28T07:42:36.247Z,988
2017-12-28T07:43:36.951Z,988
2017-12-28T07:44:37.668Z,988
2017-12-28T07:45:38.384Z,988
2017-12-28T07:46:39.089Z,988
2017-12-28T07:47:39.793Z,988
2017-12-28T07:48:40.497Z,988
2017-12-28T07:49:41.201Z,988
2017-12-28T07:50:41.906Z,988
2017-12-28T07:51:42.611Z,988
2017-12-28T07:52:43.315Z,988
2017-12-28T07:53:44.019Z,988
2017-12-28T07:54:44.723Z,988
2017-12-28T07:55:45.428Z,988
2017-12-28T07:56:46.144Z,988
2017-12-28T07:57:46.864Z,988
2017-12-28T07:58:47.568Z,988
2017-12-28T07:59:48.272Z,988
2017-12-28T08:00:48.975Z,988
2017-12-28T08:01:49.691Z,988
2017-12-28T08:02:50.407Z,988
2017-12-28T08:03:51.111Z,988
2017-12-28T08:04:51.829Z,988
2017-12-28T08:05:52.550Z,988
2017-12-28T08:06:53.250Z,988
2017-12-28T08:07:53.957Z,988
2017-12-28T08:08:54.661Z,988
2017-12-28T08:09:55.364Z,988
2017-12-28T08:10:56.068Z,988
2017-12-28T08:11:56.775Z,988
2017-12-28T08:12:57.479Z,989
2017-12-28T08:13:58.183Z,989
2017-12-28T08:14:58.902Z,989
2017-12-28T08:15:59.609Z,989
2017-12-28T08:17:00.316Z,989
2017-12-28T08:18:01.020Z,989
2017-12-28T08:19:01.730Z,989
2017-12-28T08:20:02.444Z,989
2017-12-28T08:21:03.149Z,989
2017-12-28T08:22:03.855Z,989
2017-12-28T08:23:04.559Z,989
2017-12-28T08:24:05.280Z,989
2017-12-28T08:25:05.996Z,989
2017-12-28T08:26:06.702Z,989
2017-12-28T08:27:07.409Z,989
2017-12-28T08:28:08.113Z,989
2017-12-28T08:29:08.819Z,989
2017-12-28T08:30:09.525Z,989
2017-12-28T08:31:10.236Z,989
2017-12-28T08:32:10.939Z,989
2017-12-28T08:33:11.647Z,989
2017-12-28T08:34:12.355Z,989
2017-12-28T08:35:13.061Z,989
2017-12-28T08:36:13.766Z,989
2017-12-28T08:37:14.482Z,989
2017-12-28T08:38:15.189Z,989
2017-12-28T08:39:15.910Z,989
2017-12-28T08:40:16.619Z,989
2017-12-28T08:41:17.326Z,989
2017-12-28T08:42:18.031Z,989
2017-12-28T08:43:18.737Z,989
2017-12-28T08:44:19.442Z,989
2017-12-28T08:45:20.151Z,989
2017-12-28T08:46:20.857Z,989
2017-12-28T08:47:21.564Z,989
2017-12-28T08:48:22.284Z,989
2017-12-28T08:49:22.992Z,989
2017-12-28T08:50:23.697Z,989
2017-12-28T08:51:24.404Z,989
2017-12-28T08:52:25.109Z,989
2017-12-28T08:53:25.833Z,989
2017-12-28T08:54:26.547Z,989
2017-12-28T08:55:27.265Z,989
2017-12-28T08:56:27.970Z,989
2017-12-28T08:57:28.680Z,989
2017-12-28T08:58:29.393Z,989
2017-12-28T08:59:30.099Z,989
2017-12-28T09:00:30.802Z,989
2017-12-28T09:01:31.508Z,989
2017-12-28T09:02:32.214Z,989
2017-12-28T09:03:32.920Z,989
2017-12-28T09:04:33.628Z,989
2017-12-28T09:05:34.338Z,989
2017-12-28T09:06:35.044Z,989
2017-12-28T09:07:35.752Z,989
2017-12-28T09:08:36.457Z,989
2017-12-28T09:09:37.164Z,989
2017-12-28T09:10:37.873Z,989
2017-12-28T09:11:38.580Z,989
2017-12-28T09:12:39.288Z,989
2017-12-28T09:13:40.010Z,989
2017-12-28T09:14:40.719Z,989
2017-12-28T09:15:41.442Z,989
2017-12-28T09:16:42.151Z,989
2017-12-28T09:17:42.859Z,989
2017-12-28T09:18:43.570Z,989
2017-12-28T09:19:44.280Z,989
2017-12-28T09:20:44.993Z,989
2017-12-28T09:21:45.704Z,989
2017-12-28T09:22:46.428Z,989
2017-12-28T09:23:47.154Z,989
2017-12-28T09:24:47.867Z,989
2017-12-28T09:25:48.592Z,989
2017-12-28T09:26:49.305Z,989
2017-12-28T09:27:50.020Z,989
2017-12-28T09:28:50.748Z,989
2017-12-28T09:29:51.464Z,989
2017-12-28T09:30:52.178Z,989
2017-12-28T09:31:52.895Z,989
2017-12-28T09:32:53.607Z,989
2017-12-28T09:33:54.322Z,989
2017-12-28T09:34:55.039Z,989
2017-12-28T09:35:55.755Z,989
2017-12-28T09:36:56.473Z,989
2017-12-28T09:37:57.191Z,989
2017-12-28T09:38:57.908Z,989
2017-12-28T09:39:58.623Z,989
2017-12-28T09:40:59.340Z,989
2017-12-28T09:42:00.068Z,989
2017-12-28T09:43:00.783Z,989
2017-12-28T09:44:01.500Z,989
2017-12-28T09:45:02.219Z,989
2017-12-28T09:46:02.936Z,989
2017-12-28T09:47:03.662Z,989
2017-12-28T09:48:04.379Z,990
2017-12-28T09:49:05.096Z,990
2017-12-28T09:50:05.811Z,990
2017-12-28T09:51:06.541Z,990
2017-12-28T09:52:07.259Z,990
2017-12-28T09:53:07.987Z,990
2017-12-28T09:54:08.703Z,990
2017-12-28T09:55:09.433Z,990
2017-12-28T09:56:10.153Z,990
2017-12-28T09:57:10.869Z,990
2017-12-28T09:58:11.586Z,990
2017-12-28T09:59:12.315Z,990
2017-12-28T10:00:13.033Z,990
2017-12-28T10:01:13.751Z,990
2017-12-28T10:02:14.471Z,990
2017-12-28T10:03:15.190Z,990
2017-12-28T10:04:15.908Z,990
2017-12-28T10:05:16.626Z,990
2017-12-28T10:06:17.344Z,990
2017-12-28T10:07:18.075Z,990
2017-12-28T10:08:18.793Z,990
2017-12-28T10:09:19.513Z,990
2017-12-28T10:10:20.231Z,990
2017-12-28T10:11:20.950Z,990
2017-12-28T10:12:21.668Z,990
2017-12-28T10:13:22.399Z,990
2017-12-28T10:14:23.116Z,990
2017-12-28T10:15:23.852Z,990
2017-12-28T10:16:24.570Z,990
2017-12-28T10:17:25.288Z,990
2017-12-28T10:18:26.007Z,990
2017-12-28T10:19:26.726Z,990
2017-12-28T10:20:27.456Z,990
2017-12-28T10:21:28.175Z,990
2017-12-28T10:22:28.895Z,990
2017-12-28T10:23:29.616Z,990
2017-12-28T10:24:30.347Z,990
2017-12-28T10:25:31.066Z,990
2017-12-28T10:26:31.798Z,990
2017-12-28T10:27:32.524Z,990
2017-12-28T10:28:33.237Z,990
2017-12-28T10:29:33.957Z,990
2017-12-28T10:30:34.675Z,990
2017-12-28T10:31:35.396Z,990
2017-12-28T10:32:36.117Z,990
2017-12-28T10:33:36.835Z,990
2017-12-28T10:34:37.551Z,990
2017-12-28T10:35:38.270Z,990
2017-12-28T10:36:39.004Z,990
2017-12-28T10:37:39.735Z,990
2017-12-28T10:38:40.457Z,990
2017-12-28T10:39:41.189Z,990
2017-12-28T10:40:41.913Z,990
2017-12-28T10:41:42.651Z,990
2017-12-28T10:42:43.375Z,990
2017-12-28T10:43:44.097Z,990
2017-12-28T10:44:44.820Z,990
2017-12-28T10:45:45.552Z,990
2017-12-28T10:46:46.272Z,990
2017-12-28T10:47:46.994Z,990
2017-12-28T10:48:47.716Z,990
2017-12-28T10:49:48.436Z,990
2017-12-28T10:50:49.160Z,990
2017-12-28T10:51:49.893Z,990
2017-12-28T10:52:50.615Z,990
2017-12-28T10:53:51.336Z,990
2017-12-28T10:54:52.056Z,990
2017-12-28T10:55:52.776Z,990
2017-12-28T10:56:53.495Z,990
2017-12-28T10:57:54.216Z,990
2017-12-28T10:58:54.939Z,990
2017-12-28T10:59:55.675Z,990
2017-12-28T11:00:56.392Z,990
2017-12-28T11:01:57.111Z,990
2017-12-28T11:02:57.830Z,990
2017-12-28T11:03:58.550Z,990
2017-12-28T11:04:59.270Z,990
2017-12-28T11:06:00.021Z,990
2017-12-28T11:07:00.733Z,990
2017-12-28T11:08:01.453Z,990
2017-12-28T11:09:02.180Z,990
2017-12-28T11:10:02.893Z,990
2017-12-28T11:11:03.611Z,990
2017-12-28T11:12:04.351Z,990
2017-12-28T11:13:05.063Z,990
2017-12-28T11:14:05.783Z,990
2017-12-28T11:15:06.502Z,990
2017-12-28T11:16:07.222Z,990
2017-12-28T11:17:07.941Z,990
2017-12-28T11:18:08.657Z,990
2017-12-28T11:19:09.375Z,990
2017-12-28T11:20:10.095Z,990
2017-12-28T11:21:10.811Z,990
2017-12-28T11:22:11.531Z,990
2017-12-28T11:23:12.249Z,990
2017-12-28T11:24:12.968Z,990
2017-12-28T11:25:13.685Z,990
2017-12-28T11:26:14.403Z,990
2017-12-28T11:27:15.119Z,990
2017-12-28T11:28:15.838Z,990
2017-12-28T11:29:16.557Z,990
2017-12-28T11:30:17.273Z,990
2017-12-28T11:31:17.989Z,990
2017-12-28T11:32:18.720Z,991
2017-12-28T11:33:19.435Z,990
2017-12-28T11:34:20.152Z,990
2017-12-28T11:35:20.868Z,990
2017-12-28T11:36:21.585Z,990
2017-12-28T11:37:22.304Z,990
2017-12-28T11:38:23.027Z,990
2017-12-28T11:39:23.742Z,990
2017-12-28T11:40:24.456Z,990
2017-12-28T11:41:25.173Z,990
2017-12-28T11:42:25.904Z,990
2017-12-28T11:43:26.632Z,990
2017-12-28T11:44:27.347Z,990
2017-12-28T11:45:28.063Z,990
2017-12-28T11:46:28.778Z,990
2017-12-28T11:47:29.494Z,990
2017-12-28T11:48:30.207Z,990
2017-12-28T11:49:30.924Z,990
2017-12-28T11:50:31.642Z,991
2017-12-28T11:51:32.370Z,991
2017-12-28T11:52:33.083Z,991
2017-12-28T11:53:33.798Z,991
2017-12-28T11:54:34.514Z,990
2017-12-28T11:55:35.224Z,990
2017-12-28T11:56:35.953Z,991
2017-12-28T11:57:36.666Z,991
2017-12-28T11:58:37.380Z,991
2017-12-28T11:59:38.092Z,991
2017-12-28T12:00:38.806Z,991
2017-12-28T12:01:39.518Z,991
2017-12-28T12:02:40.229Z,991
2017-12-28T12:03:40.942Z,991
2017-12-28T12:04:41.655Z,990
2017-12-28T12:05:42.381Z,990
2017-12-28T12:06:43.096Z,990
2017-12-28T12:07:43.822Z,991
2017-12-28T12:08:44.545Z,991
2017-12-28T12:09:45.257Z,991
2017-12-28T12:10:45.971Z,991
2017-12-28T12:11:46.684Z,991
2017-12-28T12:12:47.398Z,990
2017-12-28T12:13:48.127Z,991
2017-12-28T12:14:48.840Z,990
2017-12-28T12:15:49.553Z,990
2017-12-28T12:16:50.266Z,991
2017-12-28T12:17:50.981Z,991
2017-12-28T12:18:51.694Z,991
2017-12-28T12:19:52.407Z,990
2017-12-28T12:20:53.120Z,991
2017-12-28T12:21:53.834Z,991
2017-12-28T12:22:54.560Z,991
2017-12-28T12:23:55.273Z,991
2017-12-28T12:24:55.985Z,991
2017-12-28T12:25:56.709Z,991
2017-12-28T12:26:57.423Z,991
2017-12-28T12:27:58.135Z,991
2017-12-28T12:28:58.850Z,991
2017-12-28T12:29:59.576Z,991
2017-12-28T12:31:00.289Z,991
2017-12-28T12:32:01.001Z,991
2017-12-28T12:33:01.714Z,991
2017-12-28T12:34:02.426Z,991
2017-12-28T12:35:03.139Z,991
2017-12-28T12:36:03.863Z,991
2017-12-28T12:37:04.574Z,991
2017-12-28T12:38:05.286Z,991
2017-12-28T12:39:05.998Z,991
2017-12-28T12:40:06.709Z,991
2017-12-28T12:41:07.421Z,991
2017-12-28T12:42:08.137Z,991
2017-12-28T12:43:08.860Z,991
2017-12-28T12:44:09.571Z,991
2017-12-28T12:45:10.281Z,991
2017-12-28T12:46:10.992Z,991
2017-12-28T12:47:11.705Z,991
2017-12-28T12:48:12.415Z,991
2017-12-28T12:49:13.124Z,991
2017-12-28T12:50:13.834Z,991
2017-12-28T12:51:14.545Z,991
2017-12-28T12:52:15.254Z,991
2017-12-28T12:53:15.974Z,991
2017-12-28T12:54:16.684Z,991
2017-12-28T12:55:17.394Z,991
2017-12-28T12:56:18.104Z,991
2017-12-28T12:57:18.814Z,991
2017-12-28T12:58:19.525Z,991
2017-12-28T12:59:20.237Z,991
2017-12-28T13:00:20.948Z,991
2017-12-28T13:01:21.661Z,991
2017-12-28T13:02:22.371Z,991
2017-12-28T13:03:23.081Z,991
2017-12-28T13:04:23.792Z,991
2017-12-28T13:05:24.502Z,991
2017-12-28T13:06:25.224Z,991
2017-12-28T13:07:25.949Z,991
2017-12-28T13:08:26.673Z,991
2017-12-28T13:09:27.385Z,991
2017-12-28T13:10:28.097Z,991
2017-12-28T13:11:28.808Z,991
2017-12-28T13:12:29.533Z,991
2017-12-28T13:13:30.247Z,991
2017-12-28T13:14:30.959Z,991
2017-12-28T13:15:31.672Z,991
2017-12-28T13:16:32.382Z,991
2017-12-28T13:17:33.105Z,991
2017-12-28T13:18:33.816Z,991
2017-12-28T13:19:34.528Z,991
2017-12-28T13:20:35.240Z,991
2017-12-28T13:21:35.951Z,991
2017-12-28T13:22:36.662Z,991
2017-12-28T13:23:37.373Z,991
2017-12-28T13:24:38.090Z,991
2017-12-28T13:25:38.802Z,991
2017-12-28T13:26:39.512Z,991
2017-12-28T13:27:40.223Z,991
2017-12-28T13:28:40.936Z,991
2017-12-28T13:29:41.645Z,991
2017-12-28T13:30:42.368Z,991
2017-12-28T13:31:43.077Z,991
2017-12-28T13:32:43.802Z,991
2017-12-28T13:33:44.514Z,991
2017-12-28T13:34:45.237Z,991
2017-12-28T13:35:45.957Z,991
2017-12-28T13:36:46.666Z,991
2017-12-28T13:37:47.388Z,991
2017-12-28T13:38:48.098Z,991
2017-12-28T13:39:48.807Z,991
2017-12-28T13:40:49.514Z,991
2017-12-28T13:41:50.223Z,991
2017-12-28T13:42:50.929Z,991
2017-12-28T13:43:51.650Z,991
2017-12-28T13:44:52.359Z,991
2017-12-28T13:45:53.068Z,991
2017-12-28T13:46:53.775Z,991
2017-12-28T13:47:54.487Z,991
2017-12-28T13:48:55.204Z,991
2017-12-28T13:49:55.914Z,991
2017-12-28T13:50:56.622Z,991
2017-12-28T13:51:57.331Z,991
2017-12-28T13:52:58.039Z,991
2017-12-28T13:53:58.748Z,991
2017-12-28T13:54:59.455Z,991
2017-12-28T13:56:00.163Z,991